sensor_id;sensor_type;location;lat;lon;timestamp;temperature;humidity
13796;SHT30;40911;51.552;9.874;2023-03-14T00:01:14;11.26;86.33
13796;SHT30;40911;51.552;9.874;2023-03-14T00:03:36;11.47;85.43
13796;SHT30;40911;51.552;9.874;2023-03-14T00:06:01;11.37;85.53
13796;SHT30;40911;51.552;9.874;2023-03-14T00:08:23;11.22;86.25
13796;SHT30;40911;51.552;9.874;2023-03-14T00:10:45;11.13;86.47
13796;SHT30;40911;51.552;9.874;2023-03-14T00:13:07;11.04;86.71
13796;SHT30;40911;51.552;9.874;2023-03-14T00:15:29;11.09;86.56
13796;SHT30;40911;51.552;9.874;2023-03-14T00:17:51;11.23;85.81
13796;SHT30;40911;51.552;9.874;2023-03-14T00:20:12;11.19;86.01
13796;SHT30;40911;51.552;9.874;2023-03-14T00:22:34;11.14;86.04
13796;SHT30;40911;51.552;9.874;2023-03-14T00:24:56;11.23;85.72
13796;SHT30;40911;51.552;9.874;2023-03-14T00:27:18;11.09;86.27
13796;SHT30;40911;51.552;9.874;2023-03-14T00:29:42;11.14;86.21
13796;SHT30;40911;51.552;9.874;2023-03-14T00:32:04;11.30;85.42
13796;SHT30;40911;51.552;9.874;2023-03-14T00:34:28;11.13;86.13
13796;SHT30;40911;51.552;9.874;2023-03-14T00:36:50;11.07;86.21
13796;SHT30;40911;51.552;9.874;2023-03-14T00:39:11;11.06;86.22
13796;SHT30;40911;51.552;9.874;2023-03-14T00:41:33;11.04;86.33
13796;SHT30;40911;51.552;9.874;2023-03-14T00:43:54;11.03;86.24
13796;SHT30;40911;51.552;9.874;2023-03-14T00:46:17;11.00;86.27
13796;SHT30;40911;51.552;9.874;2023-03-14T00:48:39;10.91;86.76
13796;SHT30;40911;51.552;9.874;2023-03-14T00:51:01;10.93;86.81
13796;SHT30;40911;51.552;9.874;2023-03-14T00:53:23;11.16;85.87
13796;SHT30;40911;51.552;9.874;2023-03-14T00:55:44;11.07;86.06
13796;SHT30;40911;51.552;9.874;2023-03-14T00:58:06;11.07;86.26
13796;SHT30;40911;51.552;9.874;2023-03-14T01:00:27;11.02;86.39
13796;SHT30;40911;51.552;9.874;2023-03-14T01:02:50;11.02;86.19
13796;SHT30;40911;51.552;9.874;2023-03-14T01:05:12;10.86;86.96
13796;SHT30;40911;51.552;9.874;2023-03-14T01:07:33;10.99;86.14
13796;SHT30;40911;51.552;9.874;2023-03-14T01:09:55;10.99;86.15
13796;SHT30;40911;51.552;9.874;2023-03-14T01:12:16;10.97;86.23
13796;SHT30;40911;51.552;9.874;2023-03-14T01:14:38;10.96;86.29
13796;SHT30;40911;51.552;9.874;2023-03-14T01:16:59;10.95;86.21
13796;SHT30;40911;51.552;9.874;2023-03-14T01:19:22;11.02;85.94
13796;SHT30;40911;51.552;9.874;2023-03-14T01:21:44;10.85;86.45
13796;SHT30;40911;51.552;9.874;2023-03-14T01:24:06;10.85;86.56
13796;SHT30;40911;51.552;9.874;2023-03-14T01:26:30;10.72;86.92
13796;SHT30;40911;51.552;9.874;2023-03-14T01:28:55;10.68;87.11
13796;SHT30;40911;51.552;9.874;2023-03-14T01:31:17;10.71;86.84
13796;SHT30;40911;51.552;9.874;2023-03-14T01:33:38;10.79;86.49
13796;SHT30;40911;51.552;9.874;2023-03-14T01:36:02;10.82;86.33
13796;SHT30;40911;51.552;9.874;2023-03-14T01:38:24;10.88;86.27
13796;SHT30;40911;51.552;9.874;2023-03-14T01:40:45;10.72;86.50
13796;SHT30;40911;51.552;9.874;2023-03-14T01:43:13;10.78;86.32
13796;SHT30;40911;51.552;9.874;2023-03-14T01:48:39;10.83;86.00
13796;SHT30;40911;51.552;9.874;2023-03-14T01:51:04;10.79;85.92
13796;SHT30;40911;51.552;9.874;2023-03-14T01:53:29;10.72;86.38
13796;SHT30;40911;51.552;9.874;2023-03-14T01:55:52;10.75;86.35
13796;SHT30;40911;51.552;9.874;2023-03-14T01:58:15;10.71;86.20
13796;SHT30;40911;51.552;9.874;2023-03-14T02:00:38;10.65;86.69
13796;SHT30;40911;51.552;9.874;2023-03-14T02:03:00;10.67;86.51
13796;SHT30;40911;51.552;9.874;2023-03-14T02:05:25;10.62;86.70
13796;SHT30;40911;51.552;9.874;2023-03-14T02:07:52;10.72;86.41
13796;SHT30;40911;51.552;9.874;2023-03-14T02:10:14;10.74;86.34
13796;SHT30;40911;51.552;9.874;2023-03-14T02:12:39;10.69;86.44
13796;SHT30;40911;51.552;9.874;2023-03-14T02:15:00;10.71;86.48
13796;SHT30;40911;51.552;9.874;2023-03-14T02:17:22;10.71;86.40
13796;SHT30;40911;51.552;9.874;2023-03-14T02:20:06;10.72;86.47
13796;SHT30;40911;51.552;9.874;2023-03-14T02:22:29;10.68;86.59
13796;SHT30;40911;51.552;9.874;2023-03-14T02:24:57;10.79;86.19
13796;SHT30;40911;51.552;9.874;2023-03-14T02:27:22;10.74;86.48
13796;SHT30;40911;51.552;9.874;2023-03-14T02:29:49;10.71;86.48
13796;SHT30;40911;51.552;9.874;2023-03-14T02:32:13;10.61;86.92
13796;SHT30;40911;51.552;9.874;2023-03-14T02:34:35;10.74;86.26
13796;SHT30;40911;51.552;9.874;2023-03-14T02:36:58;10.71;86.34
13796;SHT30;40911;51.552;9.874;2023-03-14T02:39:24;10.69;86.49
13796;SHT30;40911;51.552;9.874;2023-03-14T02:41:47;10.75;86.38
13796;SHT30;40911;51.552;9.874;2023-03-14T02:44:10;10.67;86.68
13796;SHT30;40911;51.552;9.874;2023-03-14T02:46:32;10.55;87.16
13796;SHT30;40911;51.552;9.874;2023-03-14T02:48:56;10.49;87.30
13796;SHT30;40911;51.552;9.874;2023-03-14T02:51:19;10.60;87.04
13796;SHT30;40911;51.552;9.874;2023-03-14T02:53:41;10.61;87.01
13796;SHT30;40911;51.552;9.874;2023-03-14T02:56:03;10.62;86.97
13796;SHT30;40911;51.552;9.874;2023-03-14T02:58:25;10.64;87.07
13796;SHT30;40911;51.552;9.874;2023-03-14T03:00:49;10.57;87.34
13796;SHT30;40911;51.552;9.874;2023-03-14T03:03:11;10.55;87.46
13796;SHT30;40911;51.552;9.874;2023-03-14T03:05:32;10.65;87.02
13796;SHT30;40911;51.552;9.874;2023-03-14T03:07:54;10.64;86.99
13796;SHT30;40911;51.552;9.874;2023-03-14T03:10:17;10.54;87.47
13796;SHT30;40911;51.552;9.874;2023-03-14T03:12:39;10.55;87.70
13796;SHT30;40911;51.552;9.874;2023-03-14T03:15:00;10.51;88.06
13796;SHT30;40911;51.552;9.874;2023-03-14T03:17:23;10.40;88.42
13796;SHT30;40911;51.552;9.874;2023-03-14T03:19:45;10.45;88.22
13796;SHT30;40911;51.552;9.874;2023-03-14T03:22:07;10.37;88.30
13796;SHT30;40911;51.552;9.874;2023-03-14T03:24:28;10.38;88.64
13796;SHT30;40911;51.552;9.874;2023-03-14T03:26:50;10.34;88.76
13796;SHT30;40911;51.552;9.874;2023-03-14T03:29:11;10.34;88.60
13796;SHT30;40911;51.552;9.874;2023-03-14T03:31:33;10.28;88.85
13796;SHT30;40911;51.552;9.874;2023-03-14T03:33:56;10.31;88.60
13796;SHT30;40911;51.552;9.874;2023-03-14T03:36:20;10.27;88.90
13796;SHT30;40911;51.552;9.874;2023-03-14T03:38:42;10.28;88.85
13796;SHT30;40911;51.552;9.874;2023-03-14T03:41:05;10.37;88.85
13796;SHT30;40911;51.552;9.874;2023-03-14T03:43:27;10.27;89.16
13796;SHT30;40911;51.552;9.874;2023-03-14T03:45:48;10.30;89.12
13796;SHT30;40911;51.552;9.874;2023-03-14T03:48:10;10.34;88.99
13796;SHT30;40911;51.552;9.874;2023-03-14T03:50:33;10.34;89.06
13796;SHT30;40911;51.552;9.874;2023-03-14T03:52:54;10.37;88.93
13796;SHT30;40911;51.552;9.874;2023-03-14T03:55:16;10.31;89.20
13796;SHT30;40911;51.552;9.874;2023-03-14T03:57:38;10.28;89.22
13796;SHT30;40911;51.552;9.874;2023-03-14T03:59:59;10.31;89.09
13796;SHT30;40911;51.552;9.874;2023-03-14T04:02:21;10.33;88.79
13796;SHT30;40911;51.552;9.874;2023-03-14T04:04:42;10.33;88.73
13796;SHT30;40911;51.552;9.874;2023-03-14T04:07:05;10.57;87.59
13796;SHT30;40911;51.552;9.874;2023-03-14T04:09:27;10.44;88.00
13796;SHT30;40911;51.552;9.874;2023-03-14T04:11:48;10.40;88.15
13796;SHT30;40911;51.552;9.874;2023-03-14T04:14:10;10.48;87.14
13796;SHT30;40911;51.552;9.874;2023-03-14T04:16:31;10.47;87.14
13796;SHT30;40911;51.552;9.874;2023-03-14T04:18:53;10.44;87.41
13796;SHT30;40911;51.552;9.874;2023-03-14T04:21:15;10.34;88.09
13796;SHT30;40911;51.552;9.874;2023-03-14T04:23:38;10.44;87.82
13796;SHT30;40911;51.552;9.874;2023-03-14T04:26:00;10.44;87.89
13796;SHT30;40911;51.552;9.874;2023-03-14T04:28:21;10.34;88.62
13796;SHT30;40911;51.552;9.874;2023-03-14T04:30:43;10.37;88.42
13796;SHT30;40911;51.552;9.874;2023-03-14T04:33:04;10.28;88.99
13796;SHT30;40911;51.552;9.874;2023-03-14T04:35:27;10.30;89.01
13796;SHT30;40911;51.552;9.874;2023-03-14T04:37:51;10.31;88.89
13796;SHT30;40911;51.552;9.874;2023-03-14T04:40:14;10.28;89.05
13796;SHT30;40911;51.552;9.874;2023-03-14T04:42:36;10.24;89.37
13796;SHT30;40911;51.552;9.874;2023-03-14T04:44:58;10.20;89.68
13796;SHT30;40911;51.552;9.874;2023-03-14T04:47:20;10.16;89.92
13796;SHT30;40911;51.552;9.874;2023-03-14T04:49:42;10.13;90.08
13796;SHT30;40911;51.552;9.874;2023-03-14T04:52:03;10.09;90.28
13796;SHT30;40911;51.552;9.874;2023-03-14T04:54:25;10.10;90.03
13796;SHT30;40911;51.552;9.874;2023-03-14T04:56:48;9.99;90.45
13796;SHT30;40911;51.552;9.874;2023-03-14T04:59:09;9.93;90.76
13796;SHT30;40911;51.552;9.874;2023-03-14T05:01:31;9.88;90.71
13796;SHT30;40911;51.552;9.874;2023-03-14T05:03:52;9.93;90.50
13796;SHT30;40911;51.552;9.874;2023-03-14T05:06:14;9.97;90.45
13796;SHT30;40911;51.552;9.874;2023-03-14T05:08:36;9.93;90.34
13796;SHT30;40911;51.552;9.874;2023-03-14T05:10:57;9.85;90.69
13796;SHT30;40911;51.552;9.874;2023-03-14T05:13:20;9.92;90.19
13796;SHT30;40911;51.552;9.874;2023-03-14T05:15:43;9.83;90.34
13796;SHT30;40911;51.552;9.874;2023-03-14T05:18:04;9.86;89.83
13796;SHT30;40911;51.552;9.874;2023-03-14T05:20:26;9.96;89.16
13796;SHT30;40911;51.552;9.874;2023-03-14T05:22:47;9.90;89.42
13796;SHT30;40911;51.552;9.874;2023-03-14T05:25:10;10.02;88.84
13796;SHT30;40911;51.552;9.874;2023-03-14T05:27:31;9.90;89.65
13796;SHT30;40911;51.552;9.874;2023-03-14T05:29:54;9.96;89.39
13796;SHT30;40911;51.552;9.874;2023-03-14T05:32:16;9.95;89.45
13796;SHT30;40911;51.552;9.874;2023-03-14T05:34:37;9.93;89.45
13796;SHT30;40911;51.552;9.874;2023-03-14T05:36:59;9.96;89.39
13796;SHT30;40911;51.552;9.874;2023-03-14T05:39:21;9.90;89.77
13796;SHT30;40911;51.552;9.874;2023-03-14T05:41:42;9.86;90.36
13796;SHT30;40911;51.552;9.874;2023-03-14T05:44:04;9.82;91.18
13796;SHT30;40911;51.552;9.874;2023-03-14T05:46:27;9.69;92.05
13796;SHT30;40911;51.552;9.874;2023-03-14T05:48:50;9.59;92.65
13796;SHT30;40911;51.552;9.874;2023-03-14T05:51:12;9.51;93.41
13796;SHT30;40911;51.552;9.874;2023-03-14T05:53:33;9.69;91.55
13796;SHT30;40911;51.552;9.874;2023-03-14T05:55:57;9.59;92.33
13796;SHT30;40911;51.552;9.874;2023-03-14T05:58:20;9.62;91.93
13796;SHT30;40911;51.552;9.874;2023-03-14T06:00:42;9.68;91.12
13796;SHT30;40911;51.552;9.874;2023-03-14T06:03:05;9.62;91.22
13796;SHT30;40911;51.552;9.874;2023-03-14T06:05:26;9.76;90.17
13796;SHT30;40911;51.552;9.874;2023-03-14T06:07:48;9.79;89.66
13796;SHT30;40911;51.552;9.874;2023-03-14T06:10:10;9.66;90.53
13796;SHT30;40911;51.552;9.874;2023-03-14T06:12:31;9.69;90.50
13796;SHT30;40911;51.552;9.874;2023-03-14T06:14:53;9.63;90.75
13796;SHT30;40911;51.552;9.874;2023-03-14T06:17:14;9.76;89.77
13796;SHT30;40911;51.552;9.874;2023-03-14T06:19:37;9.82;89.48
13796;SHT30;40911;51.552;9.874;2023-03-14T06:21:59;9.78;89.55
13796;SHT30;40911;51.552;9.874;2023-03-14T06:24:20;9.68;90.17
13796;SHT30;40911;51.552;9.874;2023-03-14T06:26:42;9.81;89.20
13796;SHT30;40911;51.552;9.874;2023-03-14T06:29:04;9.83;88.88
13796;SHT30;40911;51.552;9.874;2023-03-14T06:31:25;9.90;88.58
13796;SHT30;40911;51.552;9.874;2023-03-14T06:33:47;9.90;88.52
13796;SHT30;40911;51.552;9.874;2023-03-14T06:36:10;9.99;88.04
13796;SHT30;40911;51.552;9.874;2023-03-14T06:38:32;9.97;88.10
13796;SHT30;40911;51.552;9.874;2023-03-14T06:40:53;9.93;88.42
13796;SHT30;40911;51.552;9.874;2023-03-14T06:43:15;9.96;88.47
13796;SHT30;40911;51.552;9.874;2023-03-14T06:45:37;10.06;87.58
13796;SHT30;40911;51.552;9.874;2023-03-14T06:47:58;10.07;87.86
13796;SHT30;40911;51.552;9.874;2023-03-14T06:50:21;10.14;86.86
13796;SHT30;40911;51.552;9.874;2023-03-14T06:52:44;10.16;87.07
13796;SHT30;40911;51.552;9.874;2023-03-14T06:55:08;10.18;87.22
13796;SHT30;40911;51.552;9.874;2023-03-14T06:57:30;10.21;86.85
13796;SHT30;40911;51.552;9.874;2023-03-14T06:59:51;10.28;86.36
13796;SHT30;40911;51.552;9.874;2023-03-14T07:02:13;10.27;86.49
13796;SHT30;40911;51.552;9.874;2023-03-14T07:04:35;10.26;86.71
13796;SHT30;40911;51.552;9.874;2023-03-14T07:06:56;10.30;86.63
13796;SHT30;40911;51.552;9.874;2023-03-14T07:09:19;10.37;86.29
13796;SHT30;40911;51.552;9.874;2023-03-14T07:11:41;10.38;86.46
13796;SHT30;40911;51.552;9.874;2023-03-14T07:14:03;10.45;86.15
13796;SHT30;40911;51.552;9.874;2023-03-14T07:16:24;10.45;86.23
13796;SHT30;40911;51.552;9.874;2023-03-14T07:18:48;10.42;86.66
13796;SHT30;40911;51.552;9.874;2023-03-14T07:21:10;10.44;86.30
13796;SHT30;40911;51.552;9.874;2023-03-14T07:23:32;10.41;86.90
13796;SHT30;40911;51.552;9.874;2023-03-14T07:25:55;10.47;86.41
13796;SHT30;40911;51.552;9.874;2023-03-14T07:28:16;10.54;86.16
13796;SHT30;40911;51.552;9.874;2023-03-14T07:30:38;10.57;86.43
13796;SHT30;40911;51.552;9.874;2023-03-14T07:32:59;10.64;85.83
13796;SHT30;40911;51.552;9.874;2023-03-14T07:35:21;10.67;85.94
13796;SHT30;40911;51.552;9.874;2023-03-14T07:37:43;10.67;85.73
13796;SHT30;40911;51.552;9.874;2023-03-14T07:40:05;10.72;85.94
13796;SHT30;40911;51.552;9.874;2023-03-14T07:42:29;10.75;85.96
13796;SHT30;40911;51.552;9.874;2023-03-14T07:44:51;10.72;85.99
13796;SHT30;40911;51.552;9.874;2023-03-14T07:47:12;10.75;85.78
13796;SHT30;40911;51.552;9.874;2023-03-14T07:49:34;10.76;85.56
13796;SHT30;40911;51.552;9.874;2023-03-14T07:51:55;10.69;85.92
13796;SHT30;40911;51.552;9.874;2023-03-14T07:54:18;10.75;85.41
13796;SHT30;40911;51.552;9.874;2023-03-14T07:56:40;10.81;85.59
13796;SHT30;40911;51.552;9.874;2023-03-14T07:59:03;10.79;85.60
13796;SHT30;40911;51.552;9.874;2023-03-14T08:01:24;10.82;85.49
13796;SHT30;40911;51.552;9.874;2023-03-14T08:03:46;10.81;85.77
13796;SHT30;40911;51.552;9.874;2023-03-14T08:06:07;10.86;85.81
13796;SHT30;40911;51.552;9.874;2023-03-14T08:08:29;10.92;85.72
13796;SHT30;40911;51.552;9.874;2023-03-14T08:10:51;11.04;85.66
13796;SHT30;40911;51.552;9.874;2023-03-14T08:13:12;11.04;85.25
13796;SHT30;40911;51.552;9.874;2023-03-14T08:15:35;11.12;85.53
13796;SHT30;40911;51.552;9.874;2023-03-14T08:17:57;11.17;85.52
13796;SHT30;40911;51.552;9.874;2023-03-14T08:20:20;11.12;84.84
13796;SHT30;40911;51.552;9.874;2023-03-14T08:22:42;11.36;84.26
13796;SHT30;40911;51.552;9.874;2023-03-14T08:25:04;11.34;84.11
13796;SHT30;40911;51.552;9.874;2023-03-14T08:27:26;11.41;84.86
13796;SHT30;40911;51.552;9.874;2023-03-14T08:29:48;11.40;84.36
13796;SHT30;40911;51.552;9.874;2023-03-14T08:32:11;11.16;84.78
13796;SHT30;40911;51.552;9.874;2023-03-14T08:34:33;11.17;85.53
13796;SHT30;40911;51.552;9.874;2023-03-14T08:36:54;11.07;85.70
13796;SHT30;40911;51.552;9.874;2023-03-14T08:39:17;10.89;86.19
13796;SHT30;40911;51.552;9.874;2023-03-14T08:41:38;10.86;86.73
13796;SHT30;40911;51.552;9.874;2023-03-14T08:44:03;10.71;87.59
13796;SHT30;40911;51.552;9.874;2023-03-14T08:46:24;10.67;87.77
13796;SHT30;40911;51.552;9.874;2023-03-14T08:48:47;10.58;87.77
13796;SHT30;40911;51.552;9.874;2023-03-14T08:51:14;10.68;87.63
13796;SHT30;40911;51.552;9.874;2023-03-14T08:53:35;10.71;87.84
13796;SHT30;40911;51.552;9.874;2023-03-14T08:55:57;10.78;87.77
13796;SHT30;40911;51.552;9.874;2023-03-14T08:58:18;10.93;87.32
13796;SHT30;40911;51.552;9.874;2023-03-14T09:00:40;10.75;86.77
13796;SHT30;40911;51.552;9.874;2023-03-14T09:03:01;10.83;86.63
13796;SHT30;40911;51.552;9.874;2023-03-14T09:05:24;10.89;86.27
13796;SHT30;40911;51.552;9.874;2023-03-14T09:07:46;10.95;86.41
13796;SHT30;40911;51.552;9.874;2023-03-14T09:10:09;11.00;86.21
13796;SHT30;40911;51.552;9.874;2023-03-14T09:12:31;11.19;86.66
13796;SHT30;40911;51.552;9.874;2023-03-14T09:14:52;11.23;86.10
13796;SHT30;40911;51.552;9.874;2023-03-14T09:17:14;11.39;85.97
13796;SHT30;40911;51.552;9.874;2023-03-14T09:19:35;11.47;85.69
13796;SHT30;40911;51.552;9.874;2023-03-14T09:21:58;11.55;85.99
13796;SHT30;40911;51.552;9.874;2023-03-14T09:24:20;11.33;85.38
13796;SHT30;40911;51.552;9.874;2023-03-14T09:26:42;11.47;85.36
13796;SHT30;40911;51.552;9.874;2023-03-14T09:29:03;11.41;85.23
13796;SHT30;40911;51.552;9.874;2023-03-14T09:31:25;11.55;84.70
13796;SHT30;40911;51.552;9.874;2023-03-14T09:33:47;11.88;84.32
13796;SHT30;40911;51.552;9.874;2023-03-14T09:36:09;11.77;84.03
13796;SHT30;40911;51.552;9.874;2023-03-14T09:38:32;11.96;83.49
13796;SHT30;40911;51.552;9.874;2023-03-14T09:40:55;11.61;83.10
13796;SHT30;40911;51.552;9.874;2023-03-14T09:43:19;11.75;83.85
13796;SHT30;40911;51.552;9.874;2023-03-14T09:45:44;11.89;83.57
13796;SHT30;40911;51.552;9.874;2023-03-14T09:48:12;11.55;83.55
13796;SHT30;40911;51.552;9.874;2023-03-14T09:50:38;11.79;84.14
13796;SHT30;40911;51.552;9.874;2023-03-14T09:53:04;11.72;83.94
13796;SHT30;40911;51.552;9.874;2023-03-14T09:55:29;11.67;83.94
13796;SHT30;40911;51.552;9.874;2023-03-14T09:57:54;11.65;84.14
13796;SHT30;40911;51.552;9.874;2023-03-14T10:00:19;11.60;84.35
13796;SHT30;40911;51.552;9.874;2023-03-14T10:02:45;11.37;84.36
13796;SHT30;40911;51.552;9.874;2023-03-14T10:05:15;11.44;84.81
13796;SHT30;40911;51.552;9.874;2023-03-14T10:07:37;11.71;84.60
13796;SHT30;40911;51.552;9.874;2023-03-14T10:09:59;11.68;84.62
13796;SHT30;40911;51.552;9.874;2023-03-14T10:12:32;11.64;84.60
13796;SHT30;40911;51.552;9.874;2023-03-14T10:15:04;12.00;84.27
13796;SHT30;40911;51.552;9.874;2023-03-14T10:17:26;12.15;84.41
13796;SHT30;40911;51.552;9.874;2023-03-14T10:19:55;12.26;82.90
13796;SHT30;40911;51.552;9.874;2023-03-14T10:22:18;11.98;83.64
13796;SHT30;40911;51.552;9.874;2023-03-14T10:24:45;12.05;84.24
13796;SHT30;40911;51.552;9.874;2023-03-14T10:27:19;11.93;83.39
13796;SHT30;40911;51.552;9.874;2023-03-14T10:29:52;12.16;84.00
13796;SHT30;40911;51.552;9.874;2023-03-14T10:32:19;12.13;83.93
13796;SHT30;40911;51.552;9.874;2023-03-14T10:34:41;12.40;84.10
13796;SHT30;40911;51.552;9.874;2023-03-14T10:37:06;12.06;84.33
13796;SHT30;40911;51.552;9.874;2023-03-14T10:39:36;11.71;86.03
13796;SHT30;40911;51.552;9.874;2023-03-14T10:42:04;12.09;84.71
13796;SHT30;40911;51.552;9.874;2023-03-14T10:44:26;11.96;85.56
13796;SHT30;40911;51.552;9.874;2023-03-14T10:46:55;11.68;86.99
13796;SHT30;40911;51.552;9.874;2023-03-14T10:49:26;11.78;87.49
13796;SHT30;40911;51.552;9.874;2023-03-14T10:51:48;11.48;87.95
13796;SHT30;40911;51.552;9.874;2023-03-14T10:54:14;11.47;88.77
13796;SHT30;40911;51.552;9.874;2023-03-14T10:56:37;11.48;89.83
13796;SHT30;40911;51.552;9.874;2023-03-14T10:58:59;11.44;89.38
13796;SHT30;40911;51.552;9.874;2023-03-14T11:01:32;11.43;89.14
13796;SHT30;40911;51.552;9.874;2023-03-14T11:04:00;11.55;88.62
13796;SHT30;40911;51.552;9.874;2023-03-14T11:06:28;12.02;87.51
13796;SHT30;40911;51.552;9.874;2023-03-14T11:08:57;12.46;87.81
13796;SHT30;40911;51.552;9.874;2023-03-14T11:11:23;12.29;87.15
13796;SHT30;40911;51.552;9.874;2023-03-14T11:13:55;12.20;85.92
13796;SHT30;40911;51.552;9.874;2023-03-14T11:16:22;12.22;85.92
13796;SHT30;40911;51.552;9.874;2023-03-14T11:19:03;12.47;85.86
13796;SHT30;40911;51.552;9.874;2023-03-14T11:21:37;12.50;85.63
13796;SHT30;40911;51.552;9.874;2023-03-14T11:24:14;12.84;84.62
13796;SHT30;40911;51.552;9.874;2023-03-14T11:26:43;13.23;84.14
13796;SHT30;40911;51.552;9.874;2023-03-14T11:29:16;12.99;84.20
13796;SHT30;40911;51.552;9.874;2023-03-14T11:31:41;12.91;84.14
13796;SHT30;40911;51.552;9.874;2023-03-14T11:34:15;12.54;83.49
13796;SHT30;40911;51.552;9.874;2023-03-14T11:36:46;12.75;83.75
13796;SHT30;40911;51.552;9.874;2023-03-14T11:39:13;12.74;82.94
13796;SHT30;40911;51.552;9.874;2023-03-14T11:41:38;12.78;82.56
13796;SHT30;40911;51.552;9.874;2023-03-14T11:44:03;12.98;82.61
13796;SHT30;40911;51.552;9.874;2023-03-14T11:46:28;12.99;83.15
13796;SHT30;40911;51.552;9.874;2023-03-14T11:48:58;13.01;81.68
13796;SHT30;40911;51.552;9.874;2023-03-14T11:51:24;13.09;82.54
13796;SHT30;40911;51.552;9.874;2023-03-14T11:53:53;13.09;82.49
13796;SHT30;40911;51.552;9.874;2023-03-14T11:56:22;12.78;83.20
13796;SHT30;40911;51.552;9.874;2023-03-14T11:58:51;12.79;83.22
13796;SHT30;40911;51.552;9.874;2023-03-14T12:01:17;12.61;84.48
13796;SHT30;40911;51.552;9.874;2023-03-14T12:03:45;12.44;86.58
13796;SHT30;40911;51.552;9.874;2023-03-14T12:06:16;12.32;87.31
13796;SHT30;40911;51.552;9.874;2023-03-14T12:08:46;11.93;89.17
13796;SHT30;40911;51.552;9.874;2023-03-14T12:11:15;11.74;90.59
13796;SHT30;40911;51.552;9.874;2023-03-14T12:13:39;11.50;91.64
13796;SHT30;40911;51.552;9.874;2023-03-14T12:16:05;11.44;92.29
13796;SHT30;40911;51.552;9.874;2023-03-14T12:18:28;11.20;92.45
13796;SHT30;40911;51.552;9.874;2023-03-14T12:20:53;11.06;93.13
13796;SHT30;40911;51.552;9.874;2023-03-14T12:23:15;10.60;92.52
13796;SHT30;40911;51.552;9.874;2023-03-14T12:25:39;9.49;94.93
13796;SHT30;40911;51.552;9.874;2023-03-14T12:28:12;9.59;93.28
13796;SHT30;40911;51.552;9.874;2023-03-14T12:30:39;9.57;92.84
13796;SHT30;40911;51.552;9.874;2023-03-14T12:33:14;9.34;91.55
13796;SHT30;40911;51.552;9.874;2023-03-14T12:35:42;9.26;92.30
13796;SHT30;40911;51.552;9.874;2023-03-14T12:38:05;9.17;91.90
13796;SHT30;40911;51.552;9.874;2023-03-14T12:40:30;9.21;91.96
13796;SHT30;40911;51.552;9.874;2023-03-14T12:42:57;9.26;92.24
13796;SHT30;40911;51.552;9.874;2023-03-14T12:45:25;9.19;92.27
13796;SHT30;40911;51.552;9.874;2023-03-14T12:47:51;9.38;92.87
13796;SHT30;40911;51.552;9.874;2023-03-14T12:50:19;9.19;92.44
13796;SHT30;40911;51.552;9.874;2023-03-14T12:52:53;9.00;91.75
13796;SHT30;40911;51.552;9.874;2023-03-14T12:55:19;8.88;92.17
13796;SHT30;40911;51.552;9.874;2023-03-14T12:57:47;8.79;92.41
13796;SHT30;40911;51.552;9.874;2023-03-14T13:00:21;8.68;92.74
13796;SHT30;40911;51.552;9.874;2023-03-14T13:02:50;8.18;91.71
13796;SHT30;40911;51.552;9.874;2023-03-14T13:05:13;8.38;92.01
13796;SHT30;40911;51.552;9.874;2023-03-14T13:08:03;8.18;91.93
13796;SHT30;40911;51.552;9.874;2023-03-14T13:10:26;7.85;90.46
13796;SHT30;40911;51.552;9.874;2023-03-14T13:12:54;8.04;91.49
13796;SHT30;40911;51.552;9.874;2023-03-14T13:15:24;7.81;91.21
13796;SHT30;40911;51.552;9.874;2023-03-14T13:17:46;7.48;90.51
13796;SHT30;40911;51.552;9.874;2023-03-14T13:20:12;7.52;90.81
13796;SHT30;40911;51.552;9.874;2023-03-14T13:22:35;7.32;90.44
13796;SHT30;40911;51.552;9.874;2023-03-14T13:25:00;7.13;89.61
13796;SHT30;40911;51.552;9.874;2023-03-14T13:27:22;6.96;89.13
13796;SHT30;40911;51.552;9.874;2023-03-14T13:29:44;6.78;87.99
13796;SHT30;40911;51.552;9.874;2023-03-14T13:32:17;6.72;88.10
13796;SHT30;40911;51.552;9.874;2023-03-14T13:34:40;7.06;88.99
13796;SHT30;40911;51.552;9.874;2023-03-14T13:37:02;6.90;87.52
13796;SHT30;40911;51.552;9.874;2023-03-14T13:39:26;6.93;88.85
13796;SHT30;40911;51.552;9.874;2023-03-14T13:41:50;7.03;89.25
13796;SHT30;40911;51.552;9.874;2023-03-14T13:44:16;6.42;87.62
13796;SHT30;40911;51.552;9.874;2023-03-14T13:46:39;6.21;87.69
13796;SHT30;40911;51.552;9.874;2023-03-14T13:49:06;6.25;88.18
13796;SHT30;40911;51.552;9.874;2023-03-14T13:51:29;5.90;86.92
13796;SHT30;40911;51.552;9.874;2023-03-14T13:53:54;5.82;87.57
13796;SHT30;40911;51.552;9.874;2023-03-14T13:56:17;5.25;87.47
13796;SHT30;40911;51.552;9.874;2023-03-14T13:58:41;5.48;88.76
13796;SHT30;40911;51.552;9.874;2023-03-14T14:01:16;5.16;87.44
13796;SHT30;40911;51.552;9.874;2023-03-14T14:03:44;4.99;88.65
13796;SHT30;40911;51.552;9.874;2023-03-14T14:06:16;5.28;89.44
13796;SHT30;40911;51.552;9.874;2023-03-14T14:08:41;5.25;89.11
13796;SHT30;40911;51.552;9.874;2023-03-14T14:11:04;5.35;89.03
13796;SHT30;40911;51.552;9.874;2023-03-14T14:13:28;5.25;88.80
13796;SHT30;40911;51.552;9.874;2023-03-14T14:15:52;5.28;88.98
13796;SHT30;40911;51.552;9.874;2023-03-14T14:18:17;5.56;89.40
13796;SHT30;40911;51.552;9.874;2023-03-14T14:20:42;5.27;89.14
13796;SHT30;40911;51.552;9.874;2023-03-14T14:23:10;5.55;89.82
13796;SHT30;40911;51.552;9.874;2023-03-14T14:25:32;5.51;88.65
13796;SHT30;40911;51.552;9.874;2023-03-14T14:27:54;5.37;88.85
13796;SHT30;40911;51.552;9.874;2023-03-14T14:30:28;5.46;89.14
13796;SHT30;40911;51.552;9.874;2023-03-14T14:32:51;5.44;88.60
13796;SHT30;40911;51.552;9.874;2023-03-14T14:35:22;5.31;87.66
13796;SHT30;40911;51.552;9.874;2023-03-14T14:37:44;5.52;87.93
13796;SHT30;40911;51.552;9.874;2023-03-14T14:40:13;5.81;88.71
13796;SHT30;40911;51.552;9.874;2023-03-14T14:42:40;5.45;87.19
13796;SHT30;40911;51.552;9.874;2023-03-14T14:45:02;5.73;88.08
13796;SHT30;40911;51.552;9.874;2023-03-14T14:47:25;5.69;86.88
13796;SHT30;40911;51.552;9.874;2023-03-14T14:49:49;5.76;86.83
13796;SHT30;40911;51.552;9.874;2023-03-14T14:52:13;5.97;87.60
13796;SHT30;40911;51.552;9.874;2023-03-14T14:54:37;5.89;87.35
13796;SHT30;40911;51.552;9.874;2023-03-14T14:57:04;6.14;87.71
13796;SHT30;40911;51.552;9.874;2023-03-14T14:59:27;5.89;86.62
13796;SHT30;40911;51.552;9.874;2023-03-14T15:01:49;6.20;87.13
13796;SHT30;40911;51.552;9.874;2023-03-14T15:04:13;5.69;85.92
13796;SHT30;40911;51.552;9.874;2023-03-14T15:06:37;5.99;87.80
13796;SHT30;40911;51.552;9.874;2023-03-14T15:08:58;5.87;87.20
13796;SHT30;40911;51.552;9.874;2023-03-14T15:11:21;5.55;88.11
13796;SHT30;40911;51.552;9.874;2023-03-14T15:13:45;5.44;88.86
13796;SHT30;40911;51.552;9.874;2023-03-14T15:16:08;5.23;89.41